sensor_id;sensor_type;location;lat;lon;timestamp;P1;durP1;ratioP1;P2;durP2;ratioP2
29500;SDS011;16450;50.288;10.966;2022-07-29T00:02:39;2.63;;;2.00;;
29500;SDS011;16450;50.288;10.966;2022-07-29T00:05:40;4.47;;;2.13;;
29500;SDS011;16450;50.288;10.966;2022-07-29T00:08:42;6.37;;;2.20;;
29500;SDS011;16450;50.288;10.966;2022-07-29T00:11:42;4.53;;;2.07;;
29500;SDS011;16450;50.288;10.966;2022-07-29T00:14:43;4.73;;;2.00;;
29500;SDS011;16450;50.288;10.966;2022-07-29T00:17:43;5.17;;;2.07;;
29500;SDS011;16450;50.288;10.966;2022-07-29T00:20:44;5.93;;;2.00;;
29500;SDS011;16450;50.288;10.966;2022-07-29T00:23:45;5.07;;;1.87;;
29500;SDS011;16450;50.288;10.966;2022-07-29T00:26:45;5.17;;;1.83;;
29500;SDS011;16450;50.288;10.966;2022-07-29T00:29:46;5.33;;;2.00;;
29500;SDS011;16450;50.288;10.966;2022-07-29T00:32:47;4.33;;;2.03;;
29500;SDS011;16450;50.288;10.966;2022-07-29T00:35:47;3.13;;;1.87;;
29500;SDS011;16450;50.288;10.966;2022-07-29T00:38:49;4.60;;;2.10;;
29500;SDS011;16450;50.288;10.966;2022-07-29T00:41:50;6.47;;;2.37;;
29500;SDS011;16450;50.288;10.966;2022-07-29T00:44:51;3.70;;;1.80;;
29500;SDS011;16450;50.288;10.966;2022-07-29T00:47:51;4.37;;;2.20;;
29500;SDS011;16450;50.288;10.966;2022-07-29T00:50:52;3.00;;;1.90;;
29500;SDS011;16450;50.288;10.966;2022-07-29T00:53:53;4.87;;;2.20;;
29500;SDS011;16450;50.288;10.966;2022-07-29T00:56:55;3.80;;;1.80;;
29500;SDS011;16450;50.288;10.966;2022-07-29T01:00:00;3.27;;;2.00;;
29500;SDS011;16450;50.288;10.966;2022-07-29T01:03:01;2.13;;;1.70;;
29500;SDS011;16450;50.288;10.966;2022-07-29T01:06:02;2.90;;;1.77;;
29500;SDS011;16450;50.288;10.966;2022-07-29T01:09:02;3.87;;;1.90;;
29500;SDS011;16450;50.288;10.966;2022-07-29T01:12:03;4.93;;;1.90;;
29500;SDS011;16450;50.288;10.966;2022-07-29T01:15:06;3.23;;;1.80;;
29500;SDS011;16450;50.288;10.966;2022-07-29T01:18:11;3.53;;;1.70;;
29500;SDS011;16450;50.288;10.966;2022-07-29T01:24:52;2.70;;;1.83;;
29500;SDS011;16450;50.288;10.966;2022-07-29T01:28:21;3.50;;;1.70;;
29500;SDS011;16450;50.288;10.966;2022-07-29T01:35:05;2.60;;;1.80;;
29500;SDS011;16450;50.288;10.966;2022-07-29T01:38:22;4.73;;;1.80;;
29500;SDS011;16450;50.288;10.966;2022-07-29T01:41:28;2.27;;;1.90;;
29500;SDS011;16450;50.288;10.966;2022-07-29T01:44:33;2.30;;;1.70;;
29500;SDS011;16450;50.288;10.966;2022-07-29T01:47:52;3.13;;;1.70;;
29500;SDS011;16450;50.288;10.966;2022-07-29T01:51:04;2.00;;;1.60;;
29500;SDS011;16450;50.288;10.966;2022-07-29T01:54:13;3.53;;;1.90;;
29500;SDS011;16450;50.288;10.966;2022-07-29T01:57:16;6.30;;;1.93;;
29500;SDS011;16450;50.288;10.966;2022-07-29T02:00:18;3.00;;;1.97;;
29500;SDS011;16450;50.288;10.966;2022-07-29T02:03:20;3.43;;;1.70;;
29500;SDS011;16450;50.288;10.966;2022-07-29T02:06:22;2.10;;;1.90;;
29500;SDS011;16450;50.288;10.966;2022-07-29T02:09:24;3.03;;;1.80;;
29500;SDS011;16450;50.288;10.966;2022-07-29T02:12:25;4.03;;;1.70;;
29500;SDS011;16450;50.288;10.966;2022-07-29T02:15:28;2.60;;;1.80;;
29500;SDS011;16450;50.288;10.966;2022-07-29T02:18:31;3.47;;;1.60;;
29500;SDS011;16450;50.288;10.966;2022-07-29T02:21:33;3.93;;;2.00;;
29500;SDS011;16450;50.288;10.966;2022-07-29T02:24:35;4.60;;;2.03;;
29500;SDS011;16450;50.288;10.966;2022-07-29T02:27:37;4.13;;;2.00;;
29500;SDS011;16450;50.288;10.966;2022-07-29T02:30:40;4.00;;;1.63;;
29500;SDS011;16450;50.288;10.966;2022-07-29T02:33:42;3.83;;;1.97;;
29500;SDS011;16450;50.288;10.966;2022-07-29T02:36:45;4.60;;;1.90;;
29500;SDS011;16450;50.288;10.966;2022-07-29T02:39:46;3.23;;;1.70;;
29500;SDS011;16450;50.288;10.966;2022-07-29T02:42:50;3.57;;;1.80;;
29500;SDS011;16450;50.288;10.966;2022-07-29T02:45:51;3.70;;;2.00;;
29500;SDS011;16450;50.288;10.966;2022-07-29T02:48:56;4.30;;;1.70;;
29500;SDS011;16450;50.288;10.966;2022-07-29T02:52:03;4.00;;;1.73;;
29500;SDS011;16450;50.288;10.966;2022-07-29T02:59:00;2.33;;;1.70;;
29500;SDS011;16450;50.288;10.966;2022-07-29T03:02:03;5.97;;;2.20;;
29500;SDS011;16450;50.288;10.966;2022-07-29T03:05:06;4.50;;;1.50;;
29500;SDS011;16450;50.288;10.966;2022-07-29T03:08:10;4.13;;;2.13;;
29500;SDS011;16450;50.288;10.966;2022-07-29T03:11:11;2.07;;;1.77;;
29500;SDS011;16450;50.288;10.966;2022-07-29T03:14:13;3.17;;;1.70;;
29500;SDS011;16450;50.288;10.966;2022-07-29T03:17:14;3.50;;;1.80;;
29500;SDS011;16450;50.288;10.966;2022-07-29T03:20:16;3.80;;;1.80;;
29500;SDS011;16450;50.288;10.966;2022-07-29T03:23:21;2.20;;;1.60;;
29500;SDS011;16450;50.288;10.966;2022-07-29T03:26:23;2.87;;;1.70;;
29500;SDS011;16450;50.288;10.966;2022-07-29T03:29:25;2.97;;;1.60;;
29500;SDS011;16450;50.288;10.966;2022-07-29T03:32:26;3.53;;;1.90;;
29500;SDS011;16450;50.288;10.966;2022-07-29T03:35:26;3.47;;;1.70;;
29500;SDS011;16450;50.288;10.966;2022-07-29T03:38:27;4.17;;;1.63;;
29500;SDS011;16450;50.288;10.966;2022-07-29T03:41:30;3.20;;;1.80;;
29500;SDS011;16450;50.288;10.966;2022-07-29T03:44:32;3.20;;;1.90;;
29500;SDS011;16450;50.288;10.966;2022-07-29T03:47:35;2.43;;;1.73;;
29500;SDS011;16450;50.288;10.966;2022-07-29T03:50:39;5.03;;;2.20;;
29500;SDS011;16450;50.288;10.966;2022-07-29T03:53:40;2.60;;;1.50;;
29500;SDS011;16450;50.288;10.966;2022-07-29T03:56:42;3.67;;;1.90;;
29500;SDS011;16450;50.288;10.966;2022-07-29T03:59:46;4.70;;;1.90;;
29500;SDS011;16450;50.288;10.966;2022-07-29T04:02:47;5.43;;;1.93;;
29500;SDS011;16450;50.288;10.966;2022-07-29T04:06:01;3.60;;;1.73;;
29500;SDS011;16450;50.288;10.966;2022-07-29T04:09:05;4.50;;;1.80;;
29500;SDS011;16450;50.288;10.966;2022-07-29T04:12:06;4.43;;;1.70;;
29500;SDS011;16450;50.288;10.966;2022-07-29T04:15:07;3.10;;;1.70;;
29500;SDS011;16450;50.288;10.966;2022-07-29T04:18:08;4.97;;;1.87;;
29500;SDS011;16450;50.288;10.966;2022-07-29T04:21:09;3.63;;;1.87;;
29500;SDS011;16450;50.288;10.966;2022-07-29T04:24:10;3.77;;;1.83;;
29500;SDS011;16450;50.288;10.966;2022-07-29T04:27:10;4.97;;;1.67;;
29500;SDS011;16450;50.288;10.966;2022-07-29T04:30:11;2.63;;;1.90;;
29500;SDS011;16450;50.288;10.966;2022-07-29T04:33:12;3.93;;;1.83;;
29500;SDS011;16450;50.288;10.966;2022-07-29T04:36:13;2.77;;;1.57;;
29500;SDS011;16450;50.288;10.966;2022-07-29T04:39:13;3.50;;;1.87;;
29500;SDS011;16450;50.288;10.966;2022-07-29T04:42:14;2.93;;;1.60;;
29500;SDS011;16450;50.288;10.966;2022-07-29T04:45:15;2.83;;;1.77;;
29500;SDS011;16450;50.288;10.966;2022-07-29T04:48:16;3.40;;;1.90;;
29500;SDS011;16450;50.288;10.966;2022-07-29T04:51:16;3.10;;;1.80;;
29500;SDS011;16450;50.288;10.966;2022-07-29T04:54:17;4.27;;;2.10;;
29500;SDS011;16450;50.288;10.966;2022-07-29T04:57:18;2.00;;;1.67;;
29500;SDS011;16450;50.288;10.966;2022-07-29T05:00:18;2.70;;;1.80;;
29500;SDS011;16450;50.288;10.966;2022-07-29T05:03:19;5.57;;;1.97;;
29500;SDS011;16450;50.288;10.966;2022-07-29T05:06:20;4.87;;;1.80;;
29500;SDS011;16450;50.288;10.966;2022-07-29T05:09:20;3.63;;;1.87;;
29500;SDS011;16450;50.288;10.966;2022-07-29T05:12:21;4.37;;;1.70;;
29500;SDS011;16450;50.288;10.966;2022-07-29T05:15:21;5.33;;;2.10;;
29500;SDS011;16450;50.288;10.966;2022-07-29T05:18:22;2.63;;;1.83;;
29500;SDS011;16450;50.288;10.966;2022-07-29T05:21:23;3.17;;;1.87;;
29500;SDS011;16450;50.288;10.966;2022-07-29T05:24:23;4.18;;;1.80;;
29500;SDS011;16450;50.288;10.966;2022-07-29T05:27:24;3.63;;;2.03;;
29500;SDS011;16450;50.288;10.966;2022-07-29T05:30:25;3.53;;;1.73;;
29500;SDS011;16450;50.288;10.966;2022-07-29T05:33:25;2.75;;;1.60;;
29500;SDS011;16450;50.288;10.966;2022-07-29T05:36:26;5.45;;;1.50;;
29500;SDS011;16450;50.288;10.966;2022-07-29T05:39:26;3.73;;;1.73;;
29500;SDS011;16450;50.288;10.966;2022-07-29T05:42:27;3.20;;;1.60;;
29500;SDS011;16450;50.288;10.966;2022-07-29T05:45:29;3.60;;;1.63;;
29500;SDS011;16450;50.288;10.966;2022-07-29T05:48:29;6.03;;;1.80;;
29500;SDS011;16450;50.288;10.966;2022-07-29T05:51:30;4.57;;;1.80;;
29500;SDS011;16450;50.288;10.966;2022-07-29T05:54:31;3.53;;;1.77;;
29500;SDS011;16450;50.288;10.966;2022-07-29T05:57:31;3.53;;;1.73;;
29500;SDS011;16450;50.288;10.966;2022-07-29T06:00:33;3.92;;;1.75;;
29500;SDS011;16450;50.288;10.966;2022-07-29T06:03:34;5.77;;;1.90;;
29500;SDS011;16450;50.288;10.966;2022-07-29T06:06:35;2.87;;;1.70;;
29500;SDS011;16450;50.288;10.966;2022-07-29T06:09:36;4.67;;;1.70;;
29500;SDS011;16450;50.288;10.966;2022-07-29T06:12:36;4.43;;;1.70;;
29500;SDS011;16450;50.288;10.966;2022-07-29T06:15:37;5.33;;;1.80;;
29500;SDS011;16450;50.288;10.966;2022-07-29T06:18:38;5.13;;;1.87;;
29500;SDS011;16450;50.288;10.966;2022-07-29T06:21:42;3.77;;;1.50;;
29500;SDS011;16450;50.288;10.966;2022-07-29T06:24:43;4.97;;;1.60;;
29500;SDS011;16450;50.288;10.966;2022-07-29T06:27:44;5.03;;;1.90;;
29500;SDS011;16450;50.288;10.966;2022-07-29T06:30:45;5.20;;;1.70;;
29500;SDS011;16450;50.288;10.966;2022-07-29T06:33:45;3.73;;;1.60;;
29500;SDS011;16450;50.288;10.966;2022-07-29T06:36:46;5.43;;;1.90;;
29500;SDS011;16450;50.288;10.966;2022-07-29T06:39:46;5.00;;;1.77;;
29500;SDS011;16450;50.288;10.966;2022-07-29T06:42:47;3.50;;;1.70;;
29500;SDS011;16450;50.288;10.966;2022-07-29T06:45:48;3.17;;;1.93;;
29500;SDS011;16450;50.288;10.966;2022-07-29T06:48:49;6.23;;;1.90;;
29500;SDS011;16450;50.288;10.966;2022-07-29T06:51:51;3.50;;;1.67;;
29500;SDS011;16450;50.288;10.966;2022-07-29T06:54:52;3.33;;;1.80;;
29500;SDS011;16450;50.288;10.966;2022-07-29T06:57:54;4.68;;;1.70;;
29500;SDS011;16450;50.288;10.966;2022-07-29T07:00:55;3.80;;;1.70;;
29500;SDS011;16450;50.288;10.966;2022-07-29T07:03:56;4.75;;;1.73;;
29500;SDS011;16450;50.288;10.966;2022-07-29T07:06:57;3.92;;;1.85;;
29500;SDS011;16450;50.288;10.966;2022-07-29T07:09:59;2.83;;;1.80;;
29500;SDS011;16450;50.288;10.966;2022-07-29T07:13:00;6.20;;;1.98;;
29500;SDS011;16450;50.288;10.966;2022-07-29T07:16:01;4.25;;;1.90;;
29500;SDS011;16450;50.288;10.966;2022-07-29T07:19:02;3.63;;;2.25;;
29500;SDS011;16450;50.288;10.966;2022-07-29T07:22:03;6.55;;;1.77;;
29500;SDS011;16450;50.288;10.966;2022-07-29T07:25:03;3.22;;;1.70;;
29500;SDS011;16450;50.288;10.966;2022-07-29T07:28:04;6.90;;;2.00;;
29500;SDS011;16450;50.288;10.966;2022-07-29T07:31:05;5.82;;;2.10;;
29500;SDS011;16450;50.288;10.966;2022-07-29T07:34:06;3.42;;;1.95;;
29500;SDS011;16450;50.288;10.966;2022-07-29T07:37:06;4.93;;;2.00;;
29500;SDS011;16450;50.288;10.966;2022-07-29T07:40:08;4.88;;;1.52;;
29500;SDS011;16450;50.288;10.966;2022-07-29T07:43:11;3.42;;;1.77;;
29500;SDS011;16450;50.288;10.966;2022-07-29T07:46:12;3.65;;;1.98;;
29500;SDS011;16450;50.288;10.966;2022-07-29T07:49:12;2.92;;;1.85;;
29500;SDS011;16450;50.288;10.966;2022-07-29T07:52:14;5.95;;;1.70;;
29500;SDS011;16450;50.288;10.966;2022-07-29T07:55:16;5.22;;;1.55;;
29500;SDS011;16450;50.288;10.966;2022-07-29T07:58:17;6.13;;;1.95;;
29500;SDS011;16450;50.288;10.966;2022-07-29T08:01:17;3.63;;;1.60;;
29500;SDS011;16450;50.288;10.966;2022-07-29T08:04:20;4.40;;;1.70;;
29500;SDS011;16450;50.288;10.966;2022-07-29T08:07:21;3.88;;;1.70;;
29500;SDS011;16450;50.288;10.966;2022-07-29T08:10:21;5.28;;;1.70;;
29500;SDS011;16450;50.288;10.966;2022-07-29T08:13:41;2.13;;;1.60;;
29500;SDS011;16450;50.288;10.966;2022-07-29T08:16:41;4.45;;;2.08;;
29500;SDS011;16450;50.288;10.966;2022-07-29T08:19:46;2.00;;;1.70;;
29500;SDS011;16450;50.288;10.966;2022-07-29T08:22:48;4.38;;;1.95;;
29500;SDS011;16450;50.288;10.966;2022-07-29T08:25:49;3.85;;;1.80;;
29500;SDS011;16450;50.288;10.966;2022-07-29T08:28:50;3.95;;;1.98;;
29500;SDS011;16450;50.288;10.966;2022-07-29T08:31:51;2.80;;;1.80;;
29500;SDS011;16450;50.288;10.966;2022-07-29T08:34:51;2.88;;;1.80;;
29500;SDS011;16450;50.288;10.966;2022-07-29T08:37:52;3.15;;;1.92;;
29500;SDS011;16450;50.288;10.966;2022-07-29T08:40:53;3.33;;;1.48;;
29500;SDS011;16450;50.288;10.966;2022-07-29T08:43:54;3.03;;;1.70;;
29500;SDS011;16450;50.288;10.966;2022-07-29T08:46:55;3.42;;;1.90;;
29500;SDS011;16450;50.288;10.966;2022-07-29T08:49:56;5.00;;;2.13;;
29500;SDS011;16450;50.288;10.966;2022-07-29T08:52:57;3.63;;;1.88;;
29500;SDS011;16450;50.288;10.966;2022-07-29T08:55:58;4.38;;;2.00;;
29500;SDS011;16450;50.288;10.966;2022-07-29T08:58:59;4.03;;;1.90;;
29500;SDS011;16450;50.288;10.966;2022-07-29T09:02:05;3.92;;;2.10;;
29500;SDS011;16450;50.288;10.966;2022-07-29T09:05:12;4.32;;;1.88;;
29500;SDS011;16450;50.288;10.966;2022-07-29T09:08:13;4.18;;;1.95;;
29500;SDS011;16450;50.288;10.966;2022-07-29T09:11:17;6.15;;;3.75;;
29500;SDS011;16450;50.288;10.966;2022-07-29T09:14:18;3.50;;;2.45;;
29500;SDS011;16450;50.288;10.966;2022-07-29T09:17:22;4.60;;;2.35;;
29500;SDS011;16450;50.288;10.966;2022-07-29T09:20:40;5.10;;;2.33;;
29500;SDS011;16450;50.288;10.966;2022-07-29T09:24:12;2.55;;;2.20;;
29500;SDS011;16450;50.288;10.966;2022-07-29T09:30:17;3.58;;;2.28;;
29500;SDS011;16450;50.288;10.966;2022-07-29T09:33:18;3.97;;;2.08;;
29500;SDS011;16450;50.288;10.966;2022-07-29T09:36:19;5.82;;;2.10;;
29500;SDS011;16450;50.288;10.966;2022-07-29T09:39:30;4.63;;;2.10;;
29500;SDS011;16450;50.288;10.966;2022-07-29T09:42:37;3.78;;;2.20;;
29500;SDS011;16450;50.288;10.966;2022-07-29T09:45:38;3.15;;;2.08;;
29500;SDS011;16450;50.288;10.966;2022-07-29T09:48:39;3.60;;;2.25;;
29500;SDS011;16450;50.288;10.966;2022-07-29T09:51:40;3.17;;;1.90;;
29500;SDS011;16450;50.288;10.966;2022-07-29T09:54:41;3.03;;;2.15;;
29500;SDS011;16450;50.288;10.966;2022-07-29T09:57:42;5.70;;;2.42;;
29500;SDS011;16450;50.288;10.966;2022-07-29T10:00:43;7.22;;;2.00;;
29500;SDS011;16450;50.288;10.966;2022-07-29T10:03:52;6.50;;;2.63;;
29500;SDS011;16450;50.288;10.966;2022-07-29T10:06:59;10.15;;;2.60;;
29500;SDS011;16450;50.288;10.966;2022-07-29T10:10:01;6.05;;;2.75;;
29500;SDS011;16450;50.288;10.966;2022-07-29T10:13:03;4.25;;;2.60;;
29500;SDS011;16450;50.288;10.966;2022-07-29T10:16:09;4.80;;;2.63;;
29500;SDS011;16450;50.288;10.966;2022-07-29T10:19:10;6.32;;;2.97;;
29500;SDS011;16450;50.288;10.966;2022-07-29T10:22:12;5.05;;;2.88;;
29500;SDS011;16450;50.288;10.966;2022-07-29T10:25:14;4.80;;;2.90;;
29500;SDS011;16450;50.288;10.966;2022-07-29T10:28:16;6.43;;;3.30;;
29500;SDS011;16450;50.288;10.966;2022-07-29T10:31:22;6.32;;;3.28;;
29500;SDS011;16450;50.288;10.966;2022-07-29T10:38:01;4.63;;;3.08;;
29500;SDS011;16450;50.288;10.966;2022-07-29T10:44:27;6.87;;;3.50;;
29500;SDS011;16450;50.288;10.966;2022-07-29T10:47:28;7.53;;;3.40;;
29500;SDS011;16450;50.288;10.966;2022-07-29T10:50:51;5.65;;;3.10;;
29500;SDS011;16450;50.288;10.966;2022-07-29T10:54:00;5.87;;;3.30;;
29500;SDS011;16450;50.288;10.966;2022-07-29T11:00:29;4.43;;;3.08;;
29500;SDS011;16450;50.288;10.966;2022-07-29T11:17:03;8.32;;;3.60;;
29500;SDS011;16450;50.288;10.966;2022-07-29T11:23:46;4.70;;;3.28;;
29500;SDS011;16450;50.288;10.966;2022-07-29T11:30:11;4.88;;;3.33;;
29500;SDS011;16450;50.288;10.966;2022-07-29T11:33:34;7.10;;;3.60;;
29500;SDS011;16450;50.288;10.966;2022-07-29T11:36:33;3.58;;;2.90;;
29500;SDS011;16450;50.288;10.966;2022-07-29T11:39:34;3.28;;;2.97;;
29500;SDS011;16450;50.288;10.966;2022-07-29T11:42:42;4.88;;;3.42;;
29500;SDS011;16450;50.288;10.966;2022-07-29T11:45:45;4.18;;;3.10;;
29500;SDS011;16450;50.288;10.966;2022-07-29T11:48:46;5.15;;;3.47;;
29500;SDS011;16450;50.288;10.966;2022-07-29T11:51:51;6.40;;;3.30;;
29500;SDS011;16450;50.288;10.966;2022-07-29T11:54:52;5.20;;;3.60;;
29500;SDS011;16450;50.288;10.966;2022-07-29T11:57:58;4.80;;;3.25;;
29500;SDS011;16450;50.288;10.966;2022-07-29T12:01:00;5.53;;;3.45;;
29500;SDS011;16450;50.288;10.966;2022-07-29T12:04:04;4.07;;;3.08;;
29500;SDS011;16450;50.288;10.966;2022-07-29T12:07:06;4.40;;;3.00;;
29500;SDS011;16450;50.288;10.966;2022-07-29T12:10:07;3.53;;;3.00;;
29500;SDS011;16450;50.288;10.966;2022-07-29T12:13:09;5.65;;;3.05;;
29500;SDS011;16450;50.288;10.966;2022-07-29T12:16:10;5.40;;;3.45;;
29500;SDS011;16450;50.288;10.966;2022-07-29T12:19:11;4.45;;;3.28;;
29500;SDS011;16450;50.288;10.966;2022-07-29T12:22:12;3.60;;;3.10;;
29500;SDS011;16450;50.288;10.966;2022-07-29T12:25:24;4.45;;;3.25;;
29500;SDS011;16450;50.288;10.966;2022-07-29T12:28:24;6.03;;;2.85;;
29500;SDS011;16450;50.288;10.966;2022-07-29T12:31:25;3.95;;;2.90;;
29500;SDS011;16450;50.288;10.966;2022-07-29T12:34:27;4.35;;;2.85;;
29500;SDS011;16450;50.288;10.966;2022-07-29T12:37:29;4.10;;;3.05;;
29500;SDS011;16450;50.288;10.966;2022-07-29T12:40:30;5.00;;;2.92;;
29500;SDS011;16450;50.288;10.966;2022-07-29T12:43:31;3.53;;;2.92;;
29500;SDS011;16450;50.288;10.966;2022-07-29T12:46:32;4.55;;;3.30;;
29500;SDS011;16450;50.288;10.966;2022-07-29T12:49:33;3.38;;;3.08;;
29500;SDS011;16450;50.288;10.966;2022-07-29T12:52:34;5.70;;;3.38;;
29500;SDS011;16450;50.288;10.966;2022-07-29T12:55:42;7.70;;;3.47;;
29500;SDS011;16450;50.288;10.966;2022-07-29T12:58:43;5.60;;;3.30;;
29500;SDS011;16450;50.288;10.966;2022-07-29T13:01:44;4.50;;;3.20;;
29500;SDS011;16450;50.288;10.966;2022-07-29T13:04:56;3.97;;;2.90;;
29500;SDS011;16450;50.288;10.966;2022-07-29T13:08:09;3.85;;;3.00;;
29500;SDS011;16450;50.288;10.966;2022-07-29T13:11:26;5.55;;;2.65;;
29500;SDS011;16450;50.288;10.966;2022-07-29T13:14:32;4.97;;;2.78;;
29500;SDS011;16450;50.288;10.966;2022-07-29T13:17:41;3.22;;;2.67;;
29500;SDS011;16450;50.288;10.966;2022-07-29T13:20:43;4.00;;;2.72;;
29500;SDS011;16450;50.288;10.966;2022-07-29T13:23:43;4.20;;;2.50;;
29500;SDS011;16450;50.288;10.966;2022-07-29T13:26:44;2.65;;;2.25;;
29500;SDS011;16450;50.288;10.966;2022-07-29T13:29:45;2.38;;;2.15;;
29500;SDS011;16450;50.288;10.966;2022-07-29T13:32:46;2.25;;;2.05;;
29500;SDS011;16450;50.288;10.966;2022-07-29T13:35:47;2.20;;;2.00;;
29500;SDS011;16450;50.288;10.966;2022-07-29T13:38:48;2.17;;;1.80;;
29500;SDS011;16450;50.288;10.966;2022-07-29T13:41:48;1.70;;;1.60;;
29500;SDS011;16450;50.288;10.966;2022-07-29T13:44:49;1.63;;;1.38;;
29500;SDS011;16450;50.288;10.966;2022-07-29T13:47:51;2.67;;;1.83;;
29500;SDS011;16450;50.288;10.966;2022-07-29T13:50:52;1.88;;;1.67;;
29500;SDS011;16450;50.288;10.966;2022-07-29T13:53:52;2.63;;;1.70;;
29500;SDS011;16450;50.288;10.966;2022-07-29T13:56:53;3.25;;;1.55;;
29500;SDS011;16450;50.288;10.966;2022-07-29T13:59:54;3.10;;;1.60;;
29500;SDS011;16450;50.288;10.966;2022-07-29T14:02:55;3.53;;;1.90;;
29500;SDS011;16450;50.288;10.966;2022-07-29T14:05:55;2.13;;;1.60;;
29500;SDS011;16450;50.288;10.966;2022-07-29T14:08:56;2.08;;;1.80;;
29500;SDS011;16450;50.288;10.966;2022-07-29T14:11:56;2.42;;;1.88;;
29500;SDS011;16450;50.288;10.966;2022-07-29T14:14:57;3.28;;;1.70;;
29500;SDS011;16450;50.288;10.966;2022-07-29T14:17:58;2.92;;;1.90;;
29500;SDS011;16450;50.288;10.966;2022-07-29T14:20:58;2.80;;;1.75;;
29500;SDS011;16450;50.288;10.966;2022-07-29T14:24:00;2.35;;;1.70;;
29500;SDS011;16450;50.288;10.966;2022-07-29T14:27:00;2.53;;;1.85;;
29500;SDS011;16450;50.288;10.966;2022-07-29T14:30:01;2.03;;;1.83;;
29500;SDS011;16450;50.288;10.966;2022-07-29T14:33:02;1.98;;;1.85;;
29500;SDS011;16450;50.288;10.966;2022-07-29T14:36:03;2.83;;;2.03;;
29500;SDS011;16450;50.288;10.966;2022-07-29T14:39:03;2.42;;;1.92;;
29500;SDS011;16450;50.288;10.966;2022-07-29T14:42:04;3.45;;;1.70;;
29500;SDS011;16450;50.288;10.966;2022-07-29T14:45:06;3.63;;;2.10;;
29500;SDS011;16450;50.288;10.966;2022-07-29T14:48:07;2.22;;;1.70;;
29500;SDS011;16450;50.288;10.966;2022-07-29T14:51:08;3.20;;;1.98;;
29500;SDS011;16450;50.288;10.966;2022-07-29T14:54:09;2.05;;;1.80;;
29500;SDS011;16450;50.288;10.966;2022-07-29T14:57:09;2.67;;;1.70;;
29500;SDS011;16450;50.288;10.966;2022-07-29T15:00:10;2.58;;;1.50;;
29500;SDS011;16450;50.288;10.966;2022-07-29T15:03:12;2.30;;;1.63;;
29500;SDS011;16450;50.288;10.966;2022-07-29T15:06:13;2.05;;;1.73;;
29500;SDS011;16450;50.288;10.966;2022-07-29T15:09:13;3.00;;;1.70;;
29500;SDS011;16450;50.288;10.966;2022-07-29T15:12:14;1.80;;;1.70;;
29500;SDS011;16450;50.288;10.966;2022-07-29T15:15:15;2.80;;;1.80;;
29500;SDS011;16450;50.288;10.966;2022-07-29T15:18:16;2.58;;;1.55;;
29500;SDS011;16450;50.288;10.966;2022-07-29T15:21:17;1.77;;;1.55;;
29500;SDS011;16450;50.288;10.966;2022-07-29T15:24:18;2.80;;;1.70;;
29500;SDS011;16450;50.288;10.966;2022-07-29T15:27:19;3.45;;;1.50;;
29500;SDS011;16450;50.288;10.966;2022-07-29T15:30:20;2.67;;;2.00;;
29500;SDS011;16450;50.288;10.966;2022-07-29T15:33:20;2.05;;;1.77;;
29500;SDS011;16450;50.288;10.966;2022-07-29T15:36:21;1.80;;;1.70;;
29500;SDS011;16450;50.288;10.966;2022-07-29T15:39:22;1.50;;;1.40;;
29500;SDS011;16450;50.288;10.966;2022-07-29T15:42:22;1.92;;;1.67;;
29500;SDS011;16450;50.288;10.966;2022-07-29T15:45:23;3.10;;;1.30;;
29500;SDS011;16450;50.288;10.966;2022-07-29T15:48:24;1.30;;;1.20;;
29500;SDS011;16450;50.288;10.966;2022-07-29T15:51:26;1.40;;;1.25;;
29500;SDS011;16450;50.288;10.966;2022-07-29T15:54:27;2.20;;;1.27;;
29500;SDS011;16450;50.288;10.966;2022-07-29T15:57:27;1.25;;;1.08;;
29500;SDS011;16450;50.288;10.966;2022-07-29T16:00:28;1.50;;;1.40;;
29500;SDS011;16450;50.288;10.966;2022-07-29T16:03:29;2.78;;;1.63;;
29500;SDS011;16450;50.288;10.966;2022-07-29T16:06:29;1.85;;;1.50;;
29500;SDS011;16450;50.288;10.966;2022-07-29T16:09:31;1.77;;;1.42;;
29500;SDS011;16450;50.288;10.966;2022-07-29T16:12:31;1.88;;;1.70;;
29500;SDS011;16450;50.288;10.966;2022-07-29T16:15:32;3.33;;;1.55;;
29500;SDS011;16450;50.288;10.966;2022-07-29T16:18:33;2.53;;;1.73;;
29500;SDS011;16450;50.288;10.966;2022-07-29T16:21:34;3.45;;;2.00;;
29500;SDS011;16450;50.288;10.966;2022-07-29T16:24:36;3.17;;;1.70;;
29500;SDS011;16450;50.288;10.966;2022-07-29T16:27:37;3.10;;;1.67;;
29500;SDS011;16450;50.288;10.966;2022-07-29T16:30:38;4.25;;;2.10;;
29500;SDS011;16450;50.288;10.966;2022-07-29T16:33:38;6.00;;;2.47;;
29500;SDS011;16450;50.288;10.966;2022-07-29T16:36:39;5.90;;;2.95;;
29500;SDS011;16450;50.288;10.966;2022-07-29T16:39:40;8.05;;;2.38;;
29500;SDS011;16450;50.288;10.966;2022-07-29T16:42:41;4.85;;;2.88;;
29500;SDS011;16450;50.288;10.966;2022-07-29T16:45:42;5.90;;;2.50;;
29500;SDS011;16450;50.288;10.966;2022-07-29T16:48:43;6.35;;;2.70;;
29500;SDS011;16450;50.288;10.966;2022-07-29T16:51:44;6.50;;;2.55;;
29500;SDS011;16450;50.288;10.966;2022-07-29T16:54:46;6.55;;;2.78;;
29500;SDS011;16450;50.288;10.966;2022-07-29T16:57:47;9.23;;;2.92;;
29500;SDS011;16450;50.288;10.966;2022-07-29T17:00:48;8.48;;;3.42;;
29500;SDS011;16450;50.288;10.966;2022-07-29T17:03:48;6.87;;;3.13;;
29500;SDS011;16450;50.288;10.966;2022-07-29T17:07:07;12.80;;;3.43;;
29500;SDS011;16450;50.288;10.966;2022-07-29T17:10:08;9.50;;;3.13;;
29500;SDS011;16450;50.288;10.966;2022-07-29T17:13:09;6.93;;;3.33;;
29500;SDS011;16450;50.288;10.966;2022-07-29T17:16:10;4.57;;;3.60;;
29500;SDS011;16450;50.288;10.966;2022-07-29T17:19:11;7.50;;;3.40;;
29500;SDS011;16450;50.288;10.966;2022-07-29T17:22:11;6.23;;;3.73;;
29500;SDS011;16450;50.288;10.966;2022-07-29T17:25:12;6.20;;;3.80;;
29500;SDS011;16450;50.288;10.966;2022-07-29T17:28:13;6.07;;;3.57;;
29500;SDS011;16450;50.288;10.966;2022-07-29T17:31:13;5.27;;;3.77;;
29500;SDS011;16450;50.288;10.966;2022-07-29T17:34:14;5.73;;;3.77;;
29500;SDS011;16450;50.288;10.966;2022-07-29T17:37:15;5.90;;;3.70;;
29500;SDS011;16450;50.288;10.966;2022-07-29T17:40:16;6.47;;;4.07;;
29500;SDS011;16450;50.288;10.966;2022-07-29T17:43:16;5.93;;;4.27;;
29500;SDS011;16450;50.288;10.966;2022-07-29T17:46:17;4.87;;;3.73;;
29500;SDS011;16450;50.288;10.966;2022-07-29T17:49:19;5.20;;;3.60;;
29500;SDS011;16450;50.288;10.966;2022-07-29T17:52:19;5.17;;;3.70;;
29500;SDS011;16450;50.288;10.966;2022-07-29T17:55:20;4.97;;;3.50;;
29500;SDS011;16450;50.288;10.966;2022-07-29T17:58:21;4.87;;;3.60;;
29500;SDS011;16450;50.288;10.966;2022-07-29T18:01:21;4.97;;;3.40;;
29500;SDS011;16450;50.288;10.966;2022-07-29T18:04:22;3.97;;;3.27;;
29500;SDS011;16450;50.288;10.966;2022-07-29T18:07:23;4.97;;;3.50;;
29500;SDS011;16450;50.288;10.966;2022-07-29T18:10:24;5.83;;;3.53;;
29500;SDS011;16450;50.288;10.966;2022-07-29T18:13:25;5.23;;;3.40;;
29500;SDS011;16450;50.288;10.966;2022-07-29T18:16:26;5.17;;;3.03;;
29500;SDS011;16450;50.288;10.966;2022-07-29T18:19:26;7.40;;;3.33;;
29500;SDS011;16450;50.288;10.966;2022-07-29T18:22:28;5.73;;;3.20;;
29500;SDS011;16450;50.288;10.966;2022-07-29T18:25:29;4.70;;;3.30;;
29500;SDS011;16450;50.288;10.966;2022-07-29T18:28:29;5.57;;;3.60;;
29500;SDS011;16450;50.288;10.966;2022-07-29T18:31:31;4.10;;;3.40;;
29500;SDS011;16450;50.288;10.966;2022-07-29T18:34:32;4.20;;;3.50;;
29500;SDS011;16450;50.288;10.966;2022-07-29T18:37:32;4.00;;;3.10;;
29500;SDS011;16450;50.288;10.966;2022-07-29T18:40:34;4.13;;;3.50;;
29500;SDS011;16450;50.288;10.966;2022-07-29T18:43:35;4.63;;;3.73;;
29500;SDS011;16450;50.288;10.966;2022-07-29T18:46:36;4.87;;;3.57;;